sensor_id;sensor_type;location;lat;lon;timestamp;P1;durP1;ratioP1;P2;durP2;ratioP2
73023;SDS011;61199;47.526;8.538;2022-11-15T00:00:47;11.57;;;5.40;;
73023;SDS011;61199;47.526;8.538;2022-11-15T00:03:14;12.80;;;5.87;;
73023;SDS011;61199;47.526;8.538;2022-11-15T00:05:42;23.00;;;5.63;;
73023;SDS011;61199;47.526;8.538;2022-11-15T00:08:09;10.80;;;5.30;;
73023;SDS011;61199;47.526;8.538;2022-11-15T00:10:36;6.10;;;4.53;;
73023;SDS011;61199;47.526;8.538;2022-11-15T00:13:12;9.87;;;5.30;;
73023;SDS011;61199;47.526;8.538;2022-11-15T00:15:40;14.07;;;5.73;;
73023;SDS011;61199;47.526;8.538;2022-11-15T00:18:12;110.77;;;8.30;;
73023;SDS011;61199;47.526;8.538;2022-11-15T00:20:39;13.33;;;5.77;;
73023;SDS011;61199;47.526;8.538;2022-11-15T00:23:06;7.07;;;5.23;;
73023;SDS011;61199;47.526;8.538;2022-11-15T00:25:33;6.37;;;4.50;;
73023;SDS011;61199;47.526;8.538;2022-11-15T00:27:59;8.60;;;5.67;;
73023;SDS011;61199;47.526;8.538;2022-11-15T00:30:26;16.40;;;5.20;;
73023;SDS011;61199;47.526;8.538;2022-11-15T00:32:54;7.90;;;5.03;;
73023;SDS011;61199;47.526;8.538;2022-11-15T00:35:20;10.03;;;5.30;;
73023;SDS011;61199;47.526;8.538;2022-11-15T00:37:47;8.17;;;5.30;;
73023;SDS011;61199;47.526;8.538;2022-11-15T00:40:14;19.10;;;4.97;;
73023;SDS011;61199;47.526;8.538;2022-11-15T00:42:41;18.23;;;4.40;;
73023;SDS011;61199;47.526;8.538;2022-11-15T00:45:08;9.03;;;5.30;;
73023;SDS011;61199;47.526;8.538;2022-11-15T00:47:35;10.70;;;5.10;;
73023;SDS011;61199;47.526;8.538;2022-11-15T00:50:02;11.73;;;4.60;;
73023;SDS011;61199;47.526;8.538;2022-11-15T00:52:29;25.53;;;5.40;;
73023;SDS011;61199;47.526;8.538;2022-11-15T00:54:55;50.53;;;5.30;;
73023;SDS011;61199;47.526;8.538;2022-11-15T00:57:21;19.23;;;4.80;;
73023;SDS011;61199;47.526;8.538;2022-11-15T00:59:48;50.97;;;5.63;;
73023;SDS011;61199;47.526;8.538;2022-11-15T01:02:14;11.67;;;4.80;;
73023;SDS011;61199;47.526;8.538;2022-11-15T01:04:41;8.77;;;5.40;;
73023;SDS011;61199;47.526;8.538;2022-11-15T01:07:07;9.43;;;5.50;;
73023;SDS011;61199;47.526;8.538;2022-11-15T01:09:34;9.33;;;5.33;;
73023;SDS011;61199;47.526;8.538;2022-11-15T01:12:00;11.60;;;5.37;;
73023;SDS011;61199;47.526;8.538;2022-11-15T01:14:27;12.83;;;5.40;;
73023;SDS011;61199;47.526;8.538;2022-11-15T01:16:53;7.20;;;5.37;;
73023;SDS011;61199;47.526;8.538;2022-11-15T01:19:19;8.63;;;5.17;;
73023;SDS011;61199;47.526;8.538;2022-11-15T01:21:48;15.23;;;5.00;;
73023;SDS011;61199;47.526;8.538;2022-11-15T01:24:15;7.80;;;5.30;;
73023;SDS011;61199;47.526;8.538;2022-11-15T01:26:42;10.40;;;5.63;;
73023;SDS011;61199;47.526;8.538;2022-11-15T01:29:08;8.00;;;5.40;;
73023;SDS011;61199;47.526;8.538;2022-11-15T01:31:35;10.70;;;5.80;;
73023;SDS011;61199;47.526;8.538;2022-11-15T01:34:01;8.03;;;5.77;;
73023;SDS011;61199;47.526;8.538;2022-11-15T01:36:28;8.73;;;5.77;;
73023;SDS011;61199;47.526;8.538;2022-11-15T01:38:55;9.23;;;5.60;;
73023;SDS011;61199;47.526;8.538;2022-11-15T01:41:24;7.33;;;5.33;;
73023;SDS011;61199;47.526;8.538;2022-11-15T01:43:56;8.10;;;5.30;;
73023;SDS011;61199;47.526;8.538;2022-11-15T01:46:43;9.37;;;5.60;;
73023;SDS011;61199;47.526;8.538;2022-11-15T01:49:17;9.63;;;5.47;;
73023;SDS011;61199;47.526;8.538;2022-11-15T01:51:45;8.00;;;5.80;;
73023;SDS011;61199;47.526;8.538;2022-11-15T01:54:13;7.17;;;5.50;;
73023;SDS011;61199;47.526;8.538;2022-11-15T01:56:44;8.70;;;5.40;;
73023;SDS011;61199;47.526;8.538;2022-11-15T01:59:16;8.50;;;5.40;;
73023;SDS011;61199;47.526;8.538;2022-11-15T02:01:42;8.97;;;5.40;;
73023;SDS011;61199;47.526;8.538;2022-11-15T02:04:16;9.67;;;6.50;;
73023;SDS011;61199;47.526;8.538;2022-11-15T02:06:46;11.53;;;6.90;;
73023;SDS011;61199;47.526;8.538;2022-11-15T02:09:14;7.50;;;5.53;;
73023;SDS011;61199;47.526;8.538;2022-11-15T02:11:42;10.53;;;6.30;;
73023;SDS011;61199;47.526;8.538;2022-11-15T02:14:10;11.03;;;5.93;;
73023;SDS011;61199;47.526;8.538;2022-11-15T02:17:00;14.90;;;5.83;;
73023;SDS011;61199;47.526;8.538;2022-11-15T02:25:40;10.80;;;6.73;;
73023;SDS011;61199;47.526;8.538;2022-11-15T02:28:30;11.70;;;7.23;;
73023;SDS011;61199;47.526;8.538;2022-11-15T02:34:12;12.10;;;7.10;;
73023;SDS011;61199;47.526;8.538;2022-11-15T02:36:49;14.33;;;7.27;;
73023;SDS011;61199;47.526;8.538;2022-11-15T02:42:24;11.00;;;6.33;;
73023;SDS011;61199;47.526;8.538;2022-11-15T02:45:13;14.20;;;7.90;;
73023;SDS011;61199;47.526;8.538;2022-11-15T02:47:45;13.27;;;8.47;;
73023;SDS011;61199;47.526;8.538;2022-11-15T02:50:18;15.27;;;8.10;;
73023;SDS011;61199;47.526;8.538;2022-11-15T02:52:50;15.57;;;8.33;;
73023;SDS011;61199;47.526;8.538;2022-11-15T02:55:30;13.50;;;7.80;;
73023;SDS011;61199;47.526;8.538;2022-11-15T02:58:07;13.07;;;7.50;;
73023;SDS011;61199;47.526;8.538;2022-11-15T03:00:40;17.43;;;7.30;;
73023;SDS011;61199;47.526;8.538;2022-11-15T03:06:15;13.10;;;7.50;;
73023;SDS011;61199;47.526;8.538;2022-11-15T03:11:14;16.30;;;8.87;;
73023;SDS011;61199;47.526;8.538;2022-11-15T03:21:37;13.10;;;8.33;;
73023;SDS011;61199;47.526;8.538;2022-11-15T03:24:06;13.37;;;8.30;;
73023;SDS011;61199;47.526;8.538;2022-11-15T03:26:35;15.30;;;8.17;;
73023;SDS011;61199;47.526;8.538;2022-11-15T03:29:17;12.97;;;7.70;;
73023;SDS011;61199;47.526;8.538;2022-11-15T03:31:52;16.07;;;8.30;;
73023;SDS011;61199;47.526;8.538;2022-11-15T03:34:40;12.63;;;7.37;;
73023;SDS011;61199;47.526;8.538;2022-11-15T03:37:11;11.67;;;7.70;;
73023;SDS011;61199;47.526;8.538;2022-11-15T03:39:39;12.13;;;7.50;;
73023;SDS011;61199;47.526;8.538;2022-11-15T03:42:14;12.80;;;7.33;;
73023;SDS011;61199;47.526;8.538;2022-11-15T03:44:54;14.43;;;7.13;;
73023;SDS011;61199;47.526;8.538;2022-11-15T03:50:19;12.40;;;7.17;;
73023;SDS011;61199;47.526;8.538;2022-11-15T03:52:48;14.50;;;7.90;;
73023;SDS011;61199;47.526;8.538;2022-11-15T03:55:17;15.60;;;6.97;;
73023;SDS011;61199;47.526;8.538;2022-11-15T03:57:45;18.97;;;8.00;;
73023;SDS011;61199;47.526;8.538;2022-11-15T04:00:14;13.37;;;7.87;;
73023;SDS011;61199;47.526;8.538;2022-11-15T04:02:40;32.07;;;8.47;;
73023;SDS011;61199;47.526;8.538;2022-11-15T04:05:07;15.83;;;8.50;;
73023;SDS011;61199;47.526;8.538;2022-11-15T04:07:34;16.60;;;8.97;;
73023;SDS011;61199;47.526;8.538;2022-11-15T04:10:01;19.17;;;10.13;;
73023;SDS011;61199;47.526;8.538;2022-11-15T04:12:35;17.40;;;9.63;;
73023;SDS011;61199;47.526;8.538;2022-11-15T04:15:04;20.70;;;10.00;;
73023;SDS011;61199;47.526;8.538;2022-11-15T04:23:06;17.80;;;8.97;;
73023;SDS011;61199;47.526;8.538;2022-11-15T04:25:55;18.27;;;9.63;;
73023;SDS011;61199;47.526;8.538;2022-11-15T04:28:24;18.93;;;9.20;;
73023;SDS011;61199;47.526;8.538;2022-11-15T04:30:50;18.17;;;10.07;;
73023;SDS011;61199;47.526;8.538;2022-11-15T04:33:17;15.97;;;9.23;;
73023;SDS011;61199;47.526;8.538;2022-11-15T04:35:43;17.43;;;9.57;;
73023;SDS011;61199;47.526;8.538;2022-11-15T04:38:10;17.90;;;10.10;;
73023;SDS011;61199;47.526;8.538;2022-11-15T04:40:37;20.63;;;10.37;;
73023;SDS011;61199;47.526;8.538;2022-11-15T04:43:03;19.27;;;10.10;;
73023;SDS011;61199;47.526;8.538;2022-11-15T04:45:30;17.03;;;8.90;;
73023;SDS011;61199;47.526;8.538;2022-11-15T04:47:56;15.87;;;8.67;;
73023;SDS011;61199;47.526;8.538;2022-11-15T04:50:23;15.70;;;9.37;;
73023;SDS011;61199;47.526;8.538;2022-11-15T04:52:50;14.07;;;8.43;;
73023;SDS011;61199;47.526;8.538;2022-11-15T04:55:18;15.73;;;9.77;;
73023;SDS011;61199;47.526;8.538;2022-11-15T04:57:45;17.70;;;9.00;;
73023;SDS011;61199;47.526;8.538;2022-11-15T05:00:12;17.60;;;10.63;;
73023;SDS011;61199;47.526;8.538;2022-11-15T05:02:40;30.60;;;10.33;;
73023;SDS011;61199;47.526;8.538;2022-11-15T05:05:25;15.47;;;9.77;;
73023;SDS011;61199;47.526;8.538;2022-11-15T05:07:52;17.53;;;8.63;;
73023;SDS011;61199;47.526;8.538;2022-11-15T05:10:18;33.00;;;11.70;;
73023;SDS011;61199;47.526;8.538;2022-11-15T05:12:46;52.40;;;9.97;;
73023;SDS011;61199;47.526;8.538;2022-11-15T05:15:12;25.13;;;9.30;;
73023;SDS011;61199;47.526;8.538;2022-11-15T05:17:39;77.67;;;11.37;;
73023;SDS011;61199;47.526;8.538;2022-11-15T05:20:05;56.37;;;9.27;;
73023;SDS011;61199;47.526;8.538;2022-11-15T05:22:32;214.43;;;12.63;;
73023;SDS011;61199;47.526;8.538;2022-11-15T05:24:59;46.17;;;8.30;;
73023;SDS011;61199;47.526;8.538;2022-11-15T05:27:25;181.80;;;11.80;;
73023;SDS011;61199;47.526;8.538;2022-11-15T05:29:51;46.07;;;9.47;;
73023;SDS011;61199;47.526;8.538;2022-11-15T05:32:18;150.83;;;12.13;;
73023;SDS011;61199;47.526;8.538;2022-11-15T05:34:44;29.00;;;9.60;;
73023;SDS011;61199;47.526;8.538;2022-11-15T05:37:11;74.03;;;9.30;;
73023;SDS011;61199;47.526;8.538;2022-11-15T05:39:38;85.47;;;9.67;;
73023;SDS011;61199;47.526;8.538;2022-11-15T05:42:09;23.50;;;8.60;;
73023;SDS011;61199;47.526;8.538;2022-11-15T05:44:38;25.63;;;8.53;;
73023;SDS011;61199;47.526;8.538;2022-11-15T05:47:12;16.33;;;9.00;;
73023;SDS011;61199;47.526;8.538;2022-11-15T05:49:52;17.40;;;7.53;;
73023;SDS011;61199;47.526;8.538;2022-11-15T05:52:22;10.03;;;6.63;;
73023;SDS011;61199;47.526;8.538;2022-11-15T05:54:51;18.57;;;7.40;;
73023;SDS011;61199;47.526;8.538;2022-11-15T05:57:19;23.77;;;6.70;;
73023;SDS011;61199;47.526;8.538;2022-11-15T05:59:45;9.77;;;5.93;;
73023;SDS011;61199;47.526;8.538;2022-11-15T06:02:11;16.03;;;6.57;;
73023;SDS011;61199;47.526;8.538;2022-11-15T06:04:38;12.30;;;5.47;;
73023;SDS011;61199;47.526;8.538;2022-11-15T06:07:04;21.27;;;5.83;;
73023;SDS011;61199;47.526;8.538;2022-11-15T06:09:31;8.73;;;5.70;;
73023;SDS011;61199;47.526;8.538;2022-11-15T06:11:57;19.57;;;6.00;;
73023;SDS011;61199;47.526;8.538;2022-11-15T06:14:24;12.20;;;5.70;;
73023;SDS011;61199;47.526;8.538;2022-11-15T06:16:50;30.23;;;6.07;;
73023;SDS011;61199;47.526;8.538;2022-11-15T06:19:17;32.80;;;5.97;;
73023;SDS011;61199;47.526;8.538;2022-11-15T06:21:43;54.97;;;7.00;;
73023;SDS011;61199;47.526;8.538;2022-11-15T06:24:09;8.43;;;5.90;;
73023;SDS011;61199;47.526;8.538;2022-11-15T06:26:36;25.50;;;6.17;;
73023;SDS011;61199;47.526;8.538;2022-11-15T06:29:03;9.00;;;6.00;;
73023;SDS011;61199;47.526;8.538;2022-11-15T06:31:30;9.57;;;6.53;;
73023;SDS011;61199;47.526;8.538;2022-11-15T06:33:56;8.80;;;5.10;;
73023;SDS011;61199;47.526;8.538;2022-11-15T06:36:23;10.17;;;6.13;;
73023;SDS011;61199;47.526;8.538;2022-11-15T06:38:49;18.73;;;6.17;;
73023;SDS011;61199;47.526;8.538;2022-11-15T06:41:16;16.67;;;6.53;;
73023;SDS011;61199;47.526;8.538;2022-11-15T06:43:43;18.30;;;6.90;;
73023;SDS011;61199;47.526;8.538;2022-11-15T06:46:09;17.43;;;5.83;;
73023;SDS011;61199;47.526;8.538;2022-11-15T06:48:36;7.93;;;5.40;;
73023;SDS011;61199;47.526;8.538;2022-11-15T06:51:03;7.80;;;5.60;;
73023;SDS011;61199;47.526;8.538;2022-11-15T06:53:30;9.90;;;6.47;;
73023;SDS011;61199;47.526;8.538;2022-11-15T06:55:58;8.20;;;5.87;;
73023;SDS011;61199;47.526;8.538;2022-11-15T06:58:29;10.30;;;6.53;;
73023;SDS011;61199;47.526;8.538;2022-11-15T07:00:59;8.23;;;5.57;;
73023;SDS011;61199;47.526;8.538;2022-11-15T07:03:36;8.13;;;6.03;;
73023;SDS011;61199;47.526;8.538;2022-11-15T07:06:04;9.10;;;6.10;;
73023;SDS011;61199;47.526;8.538;2022-11-15T07:08:33;8.17;;;5.80;;
73023;SDS011;61199;47.526;8.538;2022-11-15T07:11:00;9.10;;;6.00;;
73023;SDS011;61199;47.526;8.538;2022-11-15T07:13:28;9.27;;;5.97;;
73023;SDS011;61199;47.526;8.538;2022-11-15T07:16:07;8.47;;;5.87;;
73023;SDS011;61199;47.526;8.538;2022-11-15T07:18:35;6.90;;;5.27;;
73023;SDS011;61199;47.526;8.538;2022-11-15T07:21:04;6.97;;;5.27;;
73023;SDS011;61199;47.526;8.538;2022-11-15T07:23:40;10.30;;;7.13;;
73023;SDS011;61199;47.526;8.538;2022-11-15T07:26:07;7.63;;;5.70;;
73023;SDS011;61199;47.526;8.538;2022-11-15T07:28:34;8.97;;;6.10;;
73023;SDS011;61199;47.526;8.538;2022-11-15T07:31:05;9.67;;;6.60;;
73023;SDS011;61199;47.526;8.538;2022-11-15T07:33:33;9.77;;;6.40;;
73023;SDS011;61199;47.526;8.538;2022-11-15T07:36:00;11.40;;;6.20;;
73023;SDS011;61199;47.526;8.538;2022-11-15T07:38:29;8.87;;;6.07;;
73023;SDS011;61199;47.526;8.538;2022-11-15T07:40:59;8.53;;;5.80;;
73023;SDS011;61199;47.526;8.538;2022-11-15T07:43:27;9.03;;;5.70;;
73023;SDS011;61199;47.526;8.538;2022-11-15T07:45:56;9.87;;;6.73;;
73023;SDS011;61199;47.526;8.538;2022-11-15T07:48:24;10.53;;;6.43;;
73023;SDS011;61199;47.526;8.538;2022-11-15T07:51:10;10.43;;;6.97;;
73023;SDS011;61199;47.526;8.538;2022-11-15T07:53:39;9.47;;;6.67;;
73023;SDS011;61199;47.526;8.538;2022-11-15T07:56:07;9.00;;;6.57;;
73023;SDS011;61199;47.526;8.538;2022-11-15T07:58:33;9.00;;;6.10;;
73023;SDS011;61199;47.526;8.538;2022-11-15T08:01:03;16.60;;;6.73;;
73023;SDS011;61199;47.526;8.538;2022-11-15T08:03:31;10.20;;;6.50;;
73023;SDS011;61199;47.526;8.538;2022-11-15T08:05:59;9.90;;;6.97;;
73023;SDS011;61199;47.526;8.538;2022-11-15T08:08:26;8.10;;;5.33;;
73023;SDS011;61199;47.526;8.538;2022-11-15T08:10:53;11.70;;;5.97;;
73023;SDS011;61199;47.526;8.538;2022-11-15T08:13:20;9.67;;;6.40;;
73023;SDS011;61199;47.526;8.538;2022-11-15T08:15:47;10.13;;;5.80;;
73023;SDS011;61199;47.526;8.538;2022-11-15T08:18:19;10.10;;;6.00;;
73023;SDS011;61199;47.526;8.538;2022-11-15T08:20:46;9.50;;;5.40;;
73023;SDS011;61199;47.526;8.538;2022-11-15T08:23:12;10.23;;;6.60;;
73023;SDS011;61199;47.526;8.538;2022-11-15T08:25:39;8.53;;;5.43;;
73023;SDS011;61199;47.526;8.538;2022-11-15T08:28:07;10.30;;;5.67;;
73023;SDS011;61199;47.526;8.538;2022-11-15T08:30:40;8.70;;;5.93;;
73023;SDS011;61199;47.526;8.538;2022-11-15T08:33:12;9.53;;;5.60;;
73023;SDS011;61199;47.526;8.538;2022-11-15T08:35:40;9.70;;;6.00;;
73023;SDS011;61199;47.526;8.538;2022-11-15T08:38:07;7.40;;;5.50;;
73023;SDS011;61199;47.526;8.538;2022-11-15T08:40:33;11.17;;;6.03;;
73023;SDS011;61199;47.526;8.538;2022-11-15T08:43:00;10.90;;;6.10;;
73023;SDS011;61199;47.526;8.538;2022-11-15T08:45:29;10.03;;;6.50;;
73023;SDS011;61199;47.526;8.538;2022-11-15T08:47:56;9.30;;;5.90;;
73023;SDS011;61199;47.526;8.538;2022-11-15T08:50:22;13.10;;;6.10;;
73023;SDS011;61199;47.526;8.538;2022-11-15T08:52:49;10.20;;;6.03;;
73023;SDS011;61199;47.526;8.538;2022-11-15T08:55:15;9.63;;;6.00;;
73023;SDS011;61199;47.526;8.538;2022-11-15T08:57:43;10.43;;;7.33;;
73023;SDS011;61199;47.526;8.538;2022-11-15T09:00:09;12.87;;;6.77;;
73023;SDS011;61199;47.526;8.538;2022-11-15T09:02:37;10.67;;;7.30;;
73023;SDS011;61199;47.526;8.538;2022-11-15T09:05:05;10.67;;;6.87;;
73023;SDS011;61199;47.526;8.538;2022-11-15T09:07:38;16.47;;;7.03;;
73023;SDS011;61199;47.526;8.538;2022-11-15T09:10:07;11.40;;;6.93;;
73023;SDS011;61199;47.526;8.538;2022-11-15T09:12:34;13.63;;;7.10;;
73023;SDS011;61199;47.526;8.538;2022-11-15T09:15:01;17.40;;;7.33;;
73023;SDS011;61199;47.526;8.538;2022-11-15T09:17:27;12.80;;;7.37;;
73023;SDS011;61199;47.526;8.538;2022-11-15T09:19:53;10.43;;;6.50;;
73023;SDS011;61199;47.526;8.538;2022-11-15T09:22:20;9.97;;;7.30;;
73023;SDS011;61199;47.526;8.538;2022-11-15T09:24:47;10.90;;;6.80;;
73023;SDS011;61199;47.526;8.538;2022-11-15T09:27:13;11.03;;;7.30;;
73023;SDS011;61199;47.526;8.538;2022-11-15T09:29:40;10.77;;;7.37;;
73023;SDS011;61199;47.526;8.538;2022-11-15T09:32:06;9.37;;;6.70;;
73023;SDS011;61199;47.526;8.538;2022-11-15T09:34:33;13.80;;;6.97;;
73023;SDS011;61199;47.526;8.538;2022-11-15T09:36:59;11.40;;;6.87;;
73023;SDS011;61199;47.526;8.538;2022-11-15T09:39:26;14.90;;;7.00;;
73023;SDS011;61199;47.526;8.538;2022-11-15T09:44:43;15.70;;;7.80;;
73023;SDS011;61199;47.526;8.538;2022-11-15T09:49:52;10.97;;;7.63;;
73023;SDS011;61199;47.526;8.538;2022-11-15T09:52:23;20.23;;;7.60;;
73023;SDS011;61199;47.526;8.538;2022-11-15T09:54:51;14.97;;;7.37;;
73023;SDS011;61199;47.526;8.538;2022-11-15T10:05:23;10.90;;;7.27;;
73023;SDS011;61199;47.526;8.538;2022-11-15T10:07:55;10.60;;;6.90;;
73023;SDS011;61199;47.526;8.538;2022-11-15T10:10:25;9.60;;;6.67;;
73023;SDS011;61199;47.526;8.538;2022-11-15T10:12:57;12.90;;;7.30;;
73023;SDS011;61199;47.526;8.538;2022-11-15T10:15:24;10.67;;;6.33;;
73023;SDS011;61199;47.526;8.538;2022-11-15T10:22:48;12.00;;;7.77;;
73023;SDS011;61199;47.526;8.538;2022-11-15T10:25:35;11.83;;;6.43;;
73023;SDS011;61199;47.526;8.538;2022-11-15T10:28:09;9.57;;;6.77;;
73023;SDS011;61199;47.526;8.538;2022-11-15T10:30:44;10.70;;;7.30;;
73023;SDS011;61199;47.526;8.538;2022-11-15T10:33:34;10.23;;;7.03;;
73023;SDS011;61199;47.526;8.538;2022-11-15T10:46:33;13.67;;;6.47;;
73023;SDS011;61199;47.526;8.538;2022-11-15T10:49:23;11.33;;;7.33;;
73023;SDS011;61199;47.526;8.538;2022-11-15T10:51:57;11.70;;;6.70;;
73023;SDS011;61199;47.526;8.538;2022-11-15T10:54:47;13.53;;;7.57;;
73023;SDS011;61199;47.526;8.538;2022-11-15T10:57:27;11.13;;;7.40;;
73023;SDS011;61199;47.526;8.538;2022-11-15T11:00:04;11.90;;;7.00;;
73023;SDS011;61199;47.526;8.538;2022-11-15T11:02:35;14.13;;;7.80;;
73023;SDS011;61199;47.526;8.538;2022-11-15T11:10:36;14.23;;;7.43;;
73023;SDS011;61199;47.526;8.538;2022-11-15T11:15:51;13.73;;;8.03;;
73023;SDS011;61199;47.526;8.538;2022-11-15T11:18:27;13.60;;;8.70;;
73023;SDS011;61199;47.526;8.538;2022-11-15T11:21:03;13.83;;;9.23;;
73023;SDS011;61199;47.526;8.538;2022-11-15T11:23:38;13.77;;;9.00;;
73023;SDS011;61199;47.526;8.538;2022-11-15T11:34:34;15.97;;;8.70;;
73023;SDS011;61199;47.526;8.538;2022-11-15T11:37:12;13.00;;;8.30;;
73023;SDS011;61199;47.526;8.538;2022-11-15T11:40:00;17.80;;;8.83;;
73023;SDS011;61199;47.526;8.538;2022-11-15T11:42:49;13.73;;;8.20;;
73023;SDS011;61199;47.526;8.538;2022-11-15T11:48:13;13.67;;;8.97;;
73023;SDS011;61199;47.526;8.538;2022-11-15T11:50:46;17.13;;;8.53;;
73023;SDS011;61199;47.526;8.538;2022-11-15T11:53:18;16.30;;;7.30;;
73023;SDS011;61199;47.526;8.538;2022-11-15T11:55:53;13.97;;;8.37;;
73023;SDS011;61199;47.526;8.538;2022-11-15T11:58:33;15.17;;;9.73;;
73023;SDS011;61199;47.526;8.538;2022-11-15T12:03:39;12.20;;;7.97;;
73023;SDS011;61199;47.526;8.538;2022-11-15T12:06:17;11.70;;;8.17;;
73023;SDS011;61199;47.526;8.538;2022-11-15T12:08:58;12.90;;;7.47;;
73023;SDS011;61199;47.526;8.538;2022-11-15T12:11:58;14.27;;;8.73;;
73023;SDS011;61199;47.526;8.538;2022-11-15T12:14:46;15.30;;;7.40;;
73023;SDS011;61199;47.526;8.538;2022-11-15T12:17:24;9.27;;;7.00;;
73023;SDS011;61199;47.526;8.538;2022-11-15T12:19:55;11.97;;;7.53;;
73023;SDS011;61199;47.526;8.538;2022-11-15T12:22:41;12.37;;;7.57;;
73023;SDS011;61199;47.526;8.538;2022-11-15T12:25:18;11.47;;;7.33;;
73023;SDS011;61199;47.526;8.538;2022-11-15T12:30:38;18.23;;;9.27;;
73023;SDS011;61199;47.526;8.538;2022-11-15T12:33:28;13.83;;;8.73;;
73023;SDS011;61199;47.526;8.538;2022-11-15T12:35:58;16.17;;;8.90;;
73023;SDS011;61199;47.526;8.538;2022-11-15T12:41:16;20.30;;;10.00;;
73023;SDS011;61199;47.526;8.538;2022-11-15T12:43:44;13.57;;;9.13;;
73023;SDS011;61199;47.526;8.538;2022-11-15T12:48:47;14.13;;;9.27;;
73023;SDS011;61199;47.526;8.538;2022-11-15T12:51:19;13.43;;;9.57;;
73023;SDS011;61199;47.526;8.538;2022-11-15T12:53:48;19.13;;;10.47;;
73023;SDS011;61199;47.526;8.538;2022-11-15T12:58:42;22.73;;;10.03;;
73023;SDS011;61199;47.526;8.538;2022-11-15T13:06:49;19.10;;;9.97;;
73023;SDS011;61199;47.526;8.538;2022-11-15T13:12:03;14.03;;;9.50;;
73023;SDS011;61199;47.526;8.538;2022-11-15T13:17:03;13.50;;;9.27;;
73023;SDS011;61199;47.526;8.538;2022-11-15T13:19:46;12.17;;;9.20;;
73023;SDS011;61199;47.526;8.538;2022-11-15T13:22:13;14.60;;;10.13;;
73023;SDS011;61199;47.526;8.538;2022-11-15T13:24:59;20.30;;;10.23;;
73023;SDS011;61199;47.526;8.538;2022-11-15T13:27:27;14.67;;;10.13;;
73023;SDS011;61199;47.526;8.538;2022-11-15T13:29:54;15.03;;;9.70;;
73023;SDS011;61199;47.526;8.538;2022-11-15T13:32:21;19.87;;;9.77;;
73023;SDS011;61199;47.526;8.538;2022-11-15T13:34:48;18.10;;;10.40;;
73023;SDS011;61199;47.526;8.538;2022-11-15T13:39:48;23.90;;;10.67;;
73023;SDS011;61199;47.526;8.538;2022-11-15T13:42:16;14.00;;;9.87;;
73023;SDS011;61199;47.526;8.538;2022-11-15T13:44:58;15.07;;;9.57;;
73023;SDS011;61199;47.526;8.538;2022-11-15T13:47:26;12.80;;;8.63;;
73023;SDS011;61199;47.526;8.538;2022-11-15T13:49:56;14.23;;;8.97;;
73023;SDS011;61199;47.526;8.538;2022-11-15T13:52:24;12.80;;;8.07;;
73023;SDS011;61199;47.526;8.538;2022-11-15T13:55:02;12.60;;;8.10;;
73023;SDS011;61199;47.526;8.538;2022-11-15T13:57:43;11.93;;;8.37;;
73023;SDS011;61199;47.526;8.538;2022-11-15T14:00:24;13.17;;;8.17;;
73023;SDS011;61199;47.526;8.538;2022-11-15T14:02:51;13.30;;;8.43;;
73023;SDS011;61199;47.526;8.538;2022-11-15T14:05:19;12.10;;;8.67;;
73023;SDS011;61199;47.526;8.538;2022-11-15T14:07:58;15.47;;;8.40;;
73023;SDS011;61199;47.526;8.538;2022-11-15T14:10:43;15.03;;;8.77;;
73023;SDS011;61199;47.526;8.538;2022-11-15T14:15:54;14.20;;;9.10;;
73023;SDS011;61199;47.526;8.538;2022-11-15T14:21:13;16.63;;;9.00;;
73023;SDS011;61199;47.526;8.538;2022-11-15T14:23:40;13.83;;;9.50;;
73023;SDS011;61199;47.526;8.538;2022-11-15T14:26:10;16.53;;;9.30;;
73023;SDS011;61199;47.526;8.538;2022-11-15T14:31:50;18.93;;;10.50;;
73023;SDS011;61199;47.526;8.538;2022-11-15T14:34:17;23.77;;;10.40;;
73023;SDS011;61199;47.526;8.538;2022-11-15T14:36:43;17.40;;;9.60;;
73023;SDS011;61199;47.526;8.538;2022-11-15T14:39:10;13.03;;;8.47;;
73023;SDS011;61199;47.526;8.538;2022-11-15T14:41:36;12.97;;;9.07;;
73023;SDS011;61199;47.526;8.538;2022-11-15T14:44:06;23.80;;;9.47;;
73023;SDS011;61199;47.526;8.538;2022-11-15T14:46:35;13.43;;;9.50;;
73023;SDS011;61199;47.526;8.538;2022-11-15T14:49:01;12.37;;;8.80;;
73023;SDS011;61199;47.526;8.538;2022-11-15T14:51:28;13.40;;;8.97;;
73023;SDS011;61199;47.526;8.538;2022-11-15T14:53:54;18.00;;;10.70;;
73023;SDS011;61199;47.526;8.538;2022-11-15T14:56:21;14.63;;;9.50;;
73023;SDS011;61199;47.526;8.538;2022-11-15T14:58:47;13.87;;;9.57;;
73023;SDS011;61199;47.526;8.538;2022-11-15T15:01:17;15.17;;;9.20;;
73023;SDS011;61199;47.526;8.538;2022-11-15T15:03:46;15.33;;;10.17;;
73023;SDS011;61199;47.526;8.538;2022-11-15T15:06:13;26.63;;;10.27;;
73023;SDS011;61199;47.526;8.538;2022-11-15T15:08:44;17.27;;;10.20;;
73023;SDS011;61199;47.526;8.538;2022-11-15T15:11:16;14.60;;;8.87;;
73023;SDS011;61199;47.526;8.538;2022-11-15T15:13:46;15.00;;;9.40;;
73023;SDS011;61199;47.526;8.538;2022-11-15T15:16:13;13.50;;;8.60;;
73023;SDS011;61199;47.526;8.538;2022-11-15T15:18:39;14.63;;;9.50;;
73023;SDS011;61199;47.526;8.538;2022-11-15T15:21:15;14.20;;;9.20;;
73023;SDS011;61199;47.526;8.538;2022-11-15T15:23:46;14.03;;;9.90;;
73023;SDS011;61199;47.526;8.538;2022-11-15T15:26:12;19.23;;;10.97;;
73023;SDS011;61199;47.526;8.538;2022-11-15T15:28:38;13.63;;;9.03;;
73023;SDS011;61199;47.526;8.538;2022-11-15T15:31:06;19.70;;;8.73;;
73023;SDS011;61199;47.526;8.538;2022-11-15T15:33:32;14.83;;;9.07;;
73023;SDS011;61199;47.526;8.538;2022-11-15T15:35:59;17.00;;;8.67;;
73023;SDS011;61199;47.526;8.538;2022-11-15T15:38:25;15.60;;;11.30;;
73023;SDS011;61199;47.526;8.538;2022-11-15T15:40:52;17.60;;;9.50;;
73023;SDS011;61199;47.526;8.538;2022-11-15T15:43:18;13.83;;;9.37;;
73023;SDS011;61199;47.526;8.538;2022-11-15T15:45:45;14.50;;;9.27;;
73023;SDS011;61199;47.526;8.538;2022-11-15T15:48:15;14.33;;;9.10;;
73023;SDS011;61199;47.526;8.538;2022-11-15T15:50:42;16.40;;;8.70;;
73023;SDS011;61199;47.526;8.538;2022-11-15T15:53:09;13.23;;;8.83;;
73023;SDS011;61199;47.526;8.538;2022-11-15T15:55:37;15.10;;;9.37;;
73023;SDS011;61199;47.526;8.538;2022-11-15T15:58:04;19.33;;;9.07;;
73023;SDS011;61199;47.526;8.538;2022-11-15T16:00:32;15.80;;;9.60;;
73023;SDS011;61199;47.526;8.538;2022-11-15T16:03:01;15.37;;;9.37;;
73023;SDS011;61199;47.526;8.538;2022-11-15T16:05:27;18.03;;;8.70;;
73023;SDS011;61199;47.526;8.538;2022-11-15T16:07:54;15.83;;;9.43;;
73023;SDS011;61199;47.526;8.538;2022-11-15T16:10:38;15.83;;;9.27;;
73023;SDS011;61199;47.526;8.538;2022-11-15T16:13:05;16.30;;;8.37;;
73023;SDS011;61199;47.526;8.538;2022-11-15T16:15:31;13.13;;;8.50;;
73023;SDS011;61199;47.526;8.538;2022-11-15T16:17:59;15.27;;;9.63;;
73023;SDS011;61199;47.526;8.538;2022-11-15T16:23:08;12.80;;;8.70;;
73023;SDS011;61199;47.526;8.538;2022-11-15T16:25:46;12.53;;;7.90;;
73023;SDS011;61199;47.526;8.538;2022-11-15T16:28:36;12.50;;;9.00;;
73023;SDS011;61199;47.526;8.538;2022-11-15T16:31:07;20.77;;;9.73;;
73023;SDS011;61199;47.526;8.538;2022-11-15T16:33:35;11.27;;;8.30;;
73023;SDS011;61199;47.526;8.538;2022-11-15T16:36:10;14.60;;;8.87;;
73023;SDS011;61199;47.526;8.538;2022-11-15T16:38:43;17.33;;;9.30;;
73023;SDS011;61199;47.526;8.538;2022-11-15T16:41:09;18.20;;;9.53;;
73023;SDS011;61199;47.526;8.538;2022-11-15T16:43:36;14.40;;;8.23;;
73023;SDS011;61199;47.526;8.538;2022-11-15T16:46:13;16.57;;;9.50;;
73023;SDS011;61199;47.526;8.538;2022-11-15T16:48:50;17.77;;;9.57;;
73023;SDS011;61199;47.526;8.538;2022-11-15T16:51:16;18.17;;;10.30;;
73023;SDS011;61199;47.526;8.538;2022-11-15T16:53:43;16.83;;;9.70;;